sensor_id;sensor_type;location;lat;lon;timestamp;P1;durP1;ratioP1;P2;durP2;ratioP2
76202;SDS011;64985;46.364;17.008;2023-03-21T00:00:35;44.72;;;27.50;;
76202;SDS011;64985;46.364;17.008;2023-03-21T00:03:38;39.15;;;24.30;;
76202;SDS011;64985;46.364;17.008;2023-03-21T00:06:44;38.00;;;24.13;;
76202;SDS011;64985;46.364;17.008;2023-03-21T00:09:47;44.78;;;26.75;;
76202;SDS011;64985;46.364;17.008;2023-03-21T00:12:50;43.22;;;26.73;;
76202;SDS011;64985;46.364;17.008;2023-03-21T00:16:06;37.75;;;23.38;;
76202;SDS011;64985;46.364;17.008;2023-03-21T00:19:26;41.50;;;26.05;;
76202;SDS011;64985;46.364;17.008;2023-03-21T00:22:30;37.85;;;24.38;;
76202;SDS011;64985;46.364;17.008;2023-03-21T00:25:35;39.05;;;24.63;;
76202;SDS011;64985;46.364;17.008;2023-03-21T00:28:39;42.30;;;25.63;;
76202;SDS011;64985;46.364;17.008;2023-03-21T00:31:43;41.05;;;26.08;;
76202;SDS011;64985;46.364;17.008;2023-03-21T00:34:46;47.42;;;26.80;;
76202;SDS011;64985;46.364;17.008;2023-03-21T00:38:11;40.15;;;25.52;;
76202;SDS011;64985;46.364;17.008;2023-03-21T00:41:15;44.72;;;26.13;;
76202;SDS011;64985;46.364;17.008;2023-03-21T00:44:35;40.05;;;24.05;;
76202;SDS011;64985;46.364;17.008;2023-03-21T00:47:39;34.88;;;22.77;;
76202;SDS011;64985;46.364;17.008;2023-03-21T00:50:42;38.60;;;24.60;;
76202;SDS011;64985;46.364;17.008;2023-03-21T00:53:47;41.25;;;25.67;;
76202;SDS011;64985;46.364;17.008;2023-03-21T00:56:50;45.30;;;27.00;;
76202;SDS011;64985;46.364;17.008;2023-03-21T00:59:54;48.33;;;28.85;;
76202;SDS011;64985;46.364;17.008;2023-03-21T01:02:59;48.47;;;28.38;;
76202;SDS011;64985;46.364;17.008;2023-03-21T01:06:18;41.10;;;26.93;;
76202;SDS011;64985;46.364;17.008;2023-03-21T01:09:22;45.28;;;28.95;;
76202;SDS011;64985;46.364;17.008;2023-03-21T01:12:25;36.95;;;24.20;;
76202;SDS011;64985;46.364;17.008;2023-03-21T01:15:29;45.72;;;28.98;;
76202;SDS011;64985;46.364;17.008;2023-03-21T01:18:32;49.90;;;30.75;;
76202;SDS011;64985;46.364;17.008;2023-03-21T01:21:36;51.17;;;30.75;;
76202;SDS011;64985;46.364;17.008;2023-03-21T01:24:40;44.22;;;29.00;;
76202;SDS011;64985;46.364;17.008;2023-03-21T01:27:56;45.30;;;27.67;;
76202;SDS011;64985;46.364;17.008;2023-03-21T01:30:59;46.63;;;28.15;;
76202;SDS011;64985;46.364;17.008;2023-03-21T01:34:04;43.63;;;27.48;;
76202;SDS011;64985;46.364;17.008;2023-03-21T01:37:07;40.90;;;26.60;;
76202;SDS011;64985;46.364;17.008;2023-03-21T01:40:13;41.70;;;26.30;;
76202;SDS011;64985;46.364;17.008;2023-03-21T01:43:26;42.50;;;27.40;;
76202;SDS011;64985;46.364;17.008;2023-03-21T01:49:58;39.92;;;24.95;;
76202;SDS011;64985;46.364;17.008;2023-03-21T01:53:04;46.30;;;25.90;;
76202;SDS011;64985;46.364;17.008;2023-03-21T01:56:10;40.88;;;24.65;;
76202;SDS011;64985;46.364;17.008;2023-03-21T01:59:36;39.88;;;24.23;;
76202;SDS011;64985;46.364;17.008;2023-03-21T02:02:42;37.72;;;22.85;;
76202;SDS011;64985;46.364;17.008;2023-03-21T02:06:10;37.17;;;22.00;;
76202;SDS011;64985;46.364;17.008;2023-03-21T02:09:17;36.85;;;22.20;;
76202;SDS011;64985;46.364;17.008;2023-03-21T02:12:24;34.53;;;22.75;;
76202;SDS011;64985;46.364;17.008;2023-03-21T02:15:28;34.78;;;22.48;;
76202;SDS011;64985;46.364;17.008;2023-03-21T02:40:04;35.30;;;21.85;;
76202;SDS011;64985;46.364;17.008;2023-03-21T02:46:21;40.30;;;23.98;;
76202;SDS011;64985;46.364;17.008;2023-03-21T02:49:58;41.00;;;25.45;;
76202;SDS011;64985;46.364;17.008;2023-03-21T02:53:09;45.88;;;25.38;;
76202;SDS011;64985;46.364;17.008;2023-03-21T02:56:14;48.15;;;27.75;;
76202;SDS011;64985;46.364;17.008;2023-03-21T02:59:18;48.67;;;28.67;;
76202;SDS011;64985;46.364;17.008;2023-03-21T03:02:25;48.70;;;27.75;;
76202;SDS011;64985;46.364;17.008;2023-03-21T03:05:30;44.97;;;26.60;;
76202;SDS011;64985;46.364;17.008;2023-03-21T03:08:51;46.92;;;27.83;;
76202;SDS011;64985;46.364;17.008;2023-03-21T03:12:06;47.08;;;27.15;;
76202;SDS011;64985;46.364;17.008;2023-03-21T03:15:42;47.58;;;27.60;;
76202;SDS011;64985;46.364;17.008;2023-03-21T03:18:58;47.38;;;27.90;;
76202;SDS011;64985;46.364;17.008;2023-03-21T03:22:08;48.55;;;28.70;;
76202;SDS011;64985;46.364;17.008;2023-03-21T03:25:22;49.88;;;29.15;;
76202;SDS011;64985;46.364;17.008;2023-03-21T03:28:45;51.35;;;28.80;;
76202;SDS011;64985;46.364;17.008;2023-03-21T03:31:58;48.37;;;26.43;;
76202;SDS011;64985;46.364;17.008;2023-03-21T03:35:19;49.50;;;28.70;;
76202;SDS011;64985;46.364;17.008;2023-03-21T03:38:26;50.15;;;27.23;;
76202;SDS011;64985;46.364;17.008;2023-03-21T03:41:32;47.88;;;27.17;;
76202;SDS011;64985;46.364;17.008;2023-03-21T03:44:59;48.35;;;28.33;;
76202;SDS011;64985;46.364;17.008;2023-03-21T03:51:49;51.17;;;29.47;;
76202;SDS011;64985;46.364;17.008;2023-03-21T03:54:54;54.80;;;31.58;;
76202;SDS011;64985;46.364;17.008;2023-03-21T03:57:57;57.42;;;31.48;;
76202;SDS011;64985;46.364;17.008;2023-03-21T04:01:00;61.78;;;32.42;;
76202;SDS011;64985;46.364;17.008;2023-03-21T04:04:04;54.97;;;31.27;;
76202;SDS011;64985;46.364;17.008;2023-03-21T04:07:14;55.55;;;30.25;;
76202;SDS011;64985;46.364;17.008;2023-03-21T04:10:18;51.50;;;29.20;;
76202;SDS011;64985;46.364;17.008;2023-03-21T04:13:22;50.10;;;29.92;;
76202;SDS011;64985;46.364;17.008;2023-03-21T04:16:26;57.58;;;32.42;;
76202;SDS011;64985;46.364;17.008;2023-03-21T04:19:36;58.80;;;32.00;;
76202;SDS011;64985;46.364;17.008;2023-03-21T04:22:39;62.80;;;33.35;;
76202;SDS011;64985;46.364;17.008;2023-03-21T04:25:42;60.60;;;31.45;;
76202;SDS011;64985;46.364;17.008;2023-03-21T04:28:58;59.20;;;30.00;;
76202;SDS011;64985;46.364;17.008;2023-03-21T04:32:04;50.20;;;27.90;;
76202;SDS011;64985;46.364;17.008;2023-03-21T04:35:17;48.25;;;28.02;;
76202;SDS011;64985;46.364;17.008;2023-03-21T04:38:22;57.17;;;27.52;;
76202;SDS011;64985;46.364;17.008;2023-03-21T04:41:26;55.53;;;30.33;;
76202;SDS011;64985;46.364;17.008;2023-03-21T04:44:29;60.75;;;32.05;;
76202;SDS011;64985;46.364;17.008;2023-03-21T04:47:32;61.25;;;31.85;;
76202;SDS011;64985;46.364;17.008;2023-03-21T04:50:35;55.65;;;29.83;;
76202;SDS011;64985;46.364;17.008;2023-03-21T04:53:39;50.30;;;28.65;;
76202;SDS011;64985;46.364;17.008;2023-03-21T04:56:45;56.97;;;31.50;;
76202;SDS011;64985;46.364;17.008;2023-03-21T04:59:48;65.07;;;33.47;;
76202;SDS011;64985;46.364;17.008;2023-03-21T05:02:52;63.83;;;34.47;;
76202;SDS011;64985;46.364;17.008;2023-03-21T05:05:55;67.60;;;35.10;;
76202;SDS011;64985;46.364;17.008;2023-03-21T05:09:04;64.10;;;34.15;;
76202;SDS011;64985;46.364;17.008;2023-03-21T05:12:08;64.22;;;33.83;;
76202;SDS011;64985;46.364;17.008;2023-03-21T05:15:11;65.78;;;35.22;;
76202;SDS011;64985;46.364;17.008;2023-03-21T05:18:14;67.90;;;34.47;;
76202;SDS011;64985;46.364;17.008;2023-03-21T05:21:26;67.93;;;33.92;;
76202;SDS011;64985;46.364;17.008;2023-03-21T05:24:30;68.82;;;33.67;;
76202;SDS011;64985;46.364;17.008;2023-03-21T05:27:34;64.43;;;34.50;;
76202;SDS011;64985;46.364;17.008;2023-03-21T05:30:38;67.85;;;36.55;;
76202;SDS011;64985;46.364;17.008;2023-03-21T05:33:42;71.03;;;36.90;;
76202;SDS011;64985;46.364;17.008;2023-03-21T05:36:48;67.57;;;35.15;;
76202;SDS011;64985;46.364;17.008;2023-03-21T05:39:51;76.32;;;33.47;;
76202;SDS011;64985;46.364;17.008;2023-03-21T05:42:54;65.80;;;33.13;;
76202;SDS011;64985;46.364;17.008;2023-03-21T05:45:58;63.67;;;34.45;;
76202;SDS011;64985;46.364;17.008;2023-03-21T05:49:01;66.38;;;36.22;;
76202;SDS011;64985;46.364;17.008;2023-03-21T05:52:04;72.05;;;36.92;;
76202;SDS011;64985;46.364;17.008;2023-03-21T05:55:07;64.18;;;34.67;;
76202;SDS011;64985;46.364;17.008;2023-03-21T05:58:10;63.83;;;35.13;;
76202;SDS011;64985;46.364;17.008;2023-03-21T06:01:13;65.65;;;36.03;;
76202;SDS011;64985;46.364;17.008;2023-03-21T06:04:16;66.85;;;35.72;;
76202;SDS011;64985;46.364;17.008;2023-03-21T06:07:19;69.95;;;35.85;;
76202;SDS011;64985;46.364;17.008;2023-03-21T06:10:23;62.92;;;34.15;;
76202;SDS011;64985;46.364;17.008;2023-03-21T06:13:26;62.58;;;34.63;;
76202;SDS011;64985;46.364;17.008;2023-03-21T06:16:29;69.15;;;35.15;;
76202;SDS011;64985;46.364;17.008;2023-03-21T06:19:32;68.28;;;36.08;;
76202;SDS011;64985;46.364;17.008;2023-03-21T06:22:35;74.65;;;39.38;;
76202;SDS011;64985;46.364;17.008;2023-03-21T06:25:39;78.78;;;39.38;;
76202;SDS011;64985;46.364;17.008;2023-03-21T06:28:42;79.97;;;43.03;;
76202;SDS011;64985;46.364;17.008;2023-03-21T06:31:45;93.63;;;46.42;;
76202;SDS011;64985;46.364;17.008;2023-03-21T06:34:48;106.07;;;53.00;;
76202;SDS011;64985;46.364;17.008;2023-03-21T06:37:51;110.38;;;55.03;;
76202;SDS011;64985;46.364;17.008;2023-03-21T06:40:55;109.90;;;56.58;;
76202;SDS011;64985;46.364;17.008;2023-03-21T06:43:58;120.97;;;63.40;;
76202;SDS011;64985;46.364;17.008;2023-03-21T06:47:01;145.30;;;79.82;;
76202;SDS011;64985;46.364;17.008;2023-03-21T06:50:05;142.25;;;77.57;;
76202;SDS011;64985;46.364;17.008;2023-03-21T06:53:09;130.70;;;76.35;;
76202;SDS011;64985;46.364;17.008;2023-03-21T06:56:12;115.47;;;69.10;;
76202;SDS011;64985;46.364;17.008;2023-03-21T06:59:17;105.13;;;60.28;;
76202;SDS011;64985;46.364;17.008;2023-03-21T07:02:21;93.13;;;55.22;;
76202;SDS011;64985;46.364;17.008;2023-03-21T07:05:24;85.18;;;52.65;;
76202;SDS011;64985;46.364;17.008;2023-03-21T07:08:28;83.38;;;52.65;;
76202;SDS011;64985;46.364;17.008;2023-03-21T07:11:31;83.45;;;51.20;;
76202;SDS011;64985;46.364;17.008;2023-03-21T07:14:35;80.20;;;50.97;;
76202;SDS011;64985;46.364;17.008;2023-03-21T07:17:38;78.18;;;47.55;;
76202;SDS011;64985;46.364;17.008;2023-03-21T07:20:41;72.65;;;44.92;;
76202;SDS011;64985;46.364;17.008;2023-03-21T07:23:52;59.15;;;40.22;;
76202;SDS011;64985;46.364;17.008;2023-03-21T07:26:55;58.42;;;37.60;;
76202;SDS011;64985;46.364;17.008;2023-03-21T07:29:58;56.50;;;37.30;;
76202;SDS011;64985;46.364;17.008;2023-03-21T07:33:01;53.75;;;35.67;;
76202;SDS011;64985;46.364;17.008;2023-03-21T07:36:08;54.20;;;35.22;;
76202;SDS011;64985;46.364;17.008;2023-03-21T07:39:13;52.78;;;35.53;;
76202;SDS011;64985;46.364;17.008;2023-03-21T07:42:18;51.15;;;33.67;;
76202;SDS011;64985;46.364;17.008;2023-03-21T07:45:22;49.90;;;34.42;;
76202;SDS011;64985;46.364;17.008;2023-03-21T07:48:27;53.15;;;33.15;;
76202;SDS011;64985;46.364;17.008;2023-03-21T07:51:31;54.50;;;34.30;;
76202;SDS011;64985;46.364;17.008;2023-03-21T07:54:36;51.75;;;34.35;;
76202;SDS011;64985;46.364;17.008;2023-03-21T07:57:39;48.67;;;33.10;;
76202;SDS011;64985;46.364;17.008;2023-03-21T08:00:42;48.97;;;32.35;;
76202;SDS011;64985;46.364;17.008;2023-03-21T08:03:46;43.13;;;30.42;;
76202;SDS011;64985;46.364;17.008;2023-03-21T08:06:49;44.83;;;31.33;;
76202;SDS011;64985;46.364;17.008;2023-03-21T08:09:52;41.60;;;29.05;;
76202;SDS011;64985;46.364;17.008;2023-03-21T08:12:56;39.20;;;28.63;;
76202;SDS011;64985;46.364;17.008;2023-03-21T08:15:59;42.95;;;28.92;;
76202;SDS011;64985;46.364;17.008;2023-03-21T08:19:02;57.90;;;36.10;;
76202;SDS011;64985;46.364;17.008;2023-03-21T08:22:05;30.73;;;20.40;;
76202;SDS011;64985;46.364;17.008;2023-03-21T08:25:10;13.20;;;10.27;;
76202;SDS011;64985;46.364;17.008;2023-03-21T08:28:16;16.98;;;12.27;;
76202;SDS011;64985;46.364;17.008;2023-03-21T08:31:19;14.75;;;10.18;;
76202;SDS011;64985;46.364;17.008;2023-03-21T08:34:23;16.98;;;12.75;;
76202;SDS011;64985;46.364;17.008;2023-03-21T08:37:27;17.75;;;12.48;;
76202;SDS011;64985;46.364;17.008;2023-03-21T08:40:30;20.02;;;14.85;;
76202;SDS011;64985;46.364;17.008;2023-03-21T08:43:34;21.80;;;15.82;;
76202;SDS011;64985;46.364;17.008;2023-03-21T08:46:37;19.63;;;15.07;;
76202;SDS011;64985;46.364;17.008;2023-03-21T08:49:41;22.33;;;15.25;;
76202;SDS011;64985;46.364;17.008;2023-03-21T08:52:47;21.25;;;14.90;;
76202;SDS011;64985;46.364;17.008;2023-03-21T08:55:50;20.23;;;14.88;;
76202;SDS011;64985;46.364;17.008;2023-03-21T08:58:54;18.52;;;13.60;;
76202;SDS011;64985;46.364;17.008;2023-03-21T09:01:58;16.48;;;12.32;;
76202;SDS011;64985;46.364;17.008;2023-03-21T09:05:01;21.90;;;13.18;;
76202;SDS011;64985;46.364;17.008;2023-03-21T09:08:05;17.50;;;12.23;;
76202;SDS011;64985;46.364;17.008;2023-03-21T09:11:09;21.20;;;11.77;;
76202;SDS011;64985;46.364;17.008;2023-03-21T09:14:12;18.10;;;11.63;;
76202;SDS011;64985;46.364;17.008;2023-03-21T09:17:15;14.88;;;10.90;;
76202;SDS011;64985;46.364;17.008;2023-03-21T09:20:22;18.52;;;10.95;;
76202;SDS011;64985;46.364;17.008;2023-03-21T09:23:32;14.50;;;9.88;;
76202;SDS011;64985;46.364;17.008;2023-03-21T09:26:35;13.77;;;9.98;;
76202;SDS011;64985;46.364;17.008;2023-03-21T09:29:39;14.23;;;9.45;;
76202;SDS011;64985;46.364;17.008;2023-03-21T09:32:44;12.27;;;8.75;;
76202;SDS011;64985;46.364;17.008;2023-03-21T09:35:49;11.63;;;8.55;;
76202;SDS011;64985;46.364;17.008;2023-03-21T09:38:53;15.45;;;8.40;;
76202;SDS011;64985;46.364;17.008;2023-03-21T09:45:20;10.90;;;8.27;;
76202;SDS011;64985;46.364;17.008;2023-03-21T09:48:37;11.50;;;8.40;;
76202;SDS011;64985;46.364;17.008;2023-03-21T09:51:58;10.90;;;8.40;;
76202;SDS011;64985;46.364;17.008;2023-03-21T09:55:08;12.73;;;8.57;;
76202;SDS011;64985;46.364;17.008;2023-03-21T09:58:27;10.10;;;7.60;;
76202;SDS011;64985;46.364;17.008;2023-03-21T10:01:40;11.25;;;7.97;;
76202;SDS011;64985;46.364;17.008;2023-03-21T10:04:46;11.13;;;7.45;;
76202;SDS011;64985;46.364;17.008;2023-03-21T10:14:27;11.02;;;8.25;;
76202;SDS011;64985;46.364;17.008;2023-03-21T10:17:35;10.95;;;8.68;;
76202;SDS011;64985;46.364;17.008;2023-03-21T10:20:44;11.43;;;8.38;;
76202;SDS011;64985;46.364;17.008;2023-03-21T10:23:48;12.02;;;8.15;;
76202;SDS011;64985;46.364;17.008;2023-03-21T10:26:53;10.05;;;8.10;;
76202;SDS011;64985;46.364;17.008;2023-03-21T10:29:57;9.20;;;5.85;;
76202;SDS011;64985;46.364;17.008;2023-03-21T10:33:03;7.10;;;5.45;;
76202;SDS011;64985;46.364;17.008;2023-03-21T10:36:11;9.23;;;5.45;;
76202;SDS011;64985;46.364;17.008;2023-03-21T10:39:39;5.78;;;5.10;;
76202;SDS011;64985;46.364;17.008;2023-03-21T10:42:44;5.93;;;4.90;;
76202;SDS011;64985;46.364;17.008;2023-03-21T10:45:47;9.15;;;5.53;;
76202;SDS011;64985;46.364;17.008;2023-03-21T10:48:54;6.70;;;5.03;;
76202;SDS011;64985;46.364;17.008;2023-03-21T10:51:57;5.97;;;4.97;;
76202;SDS011;64985;46.364;17.008;2023-03-21T10:55:15;7.05;;;5.93;;
76202;SDS011;64985;46.364;17.008;2023-03-21T10:58:32;7.57;;;5.95;;
76202;SDS011;64985;46.364;17.008;2023-03-21T11:01:41;6.18;;;5.55;;
76202;SDS011;64985;46.364;17.008;2023-03-21T11:04:47;8.73;;;6.20;;
76202;SDS011;64985;46.364;17.008;2023-03-21T11:08:02;8.60;;;6.30;;
76202;SDS011;64985;46.364;17.008;2023-03-21T11:12:15;7.47;;;6.07;;
76202;SDS011;64985;46.364;17.008;2023-03-21T11:14:55;12.63;;;6.10;;
76202;SDS011;64985;46.364;17.008;2023-03-21T11:17:59;8.90;;;6.20;;
76202;SDS011;64985;46.364;17.008;2023-03-21T11:21:15;10.77;;;5.80;;
76202;SDS011;64985;46.364;17.008;2023-03-21T11:24:18;6.95;;;5.95;;
76202;SDS011;64985;46.364;17.008;2023-03-21T11:27:22;8.35;;;5.90;;
76202;SDS011;64985;46.364;17.008;2023-03-21T11:30:30;7.15;;;5.72;;
76202;SDS011;64985;46.364;17.008;2023-03-21T11:33:55;8.50;;;5.35;;
76202;SDS011;64985;46.364;17.008;2023-03-21T11:37:01;6.68;;;5.78;;
76202;SDS011;64985;46.364;17.008;2023-03-21T11:43:35;7.25;;;4.97;;
76202;SDS011;64985;46.364;17.008;2023-03-21T11:46:40;7.25;;;5.40;;
76202;SDS011;64985;46.364;17.008;2023-03-21T11:49:44;11.45;;;4.75;;
76202;SDS011;64985;46.364;17.008;2023-03-21T11:52:53;11.05;;;6.72;;
76202;SDS011;64985;46.364;17.008;2023-03-21T11:59:55;7.07;;;5.20;;
76202;SDS011;64985;46.364;17.008;2023-03-21T12:27:49;6.50;;;4.85;;
76202;SDS011;64985;46.364;17.008;2023-03-21T12:41:30;6.03;;;4.88;;
76202;SDS011;64985;46.364;17.008;2023-03-21T12:44:38;6.38;;;4.80;;
76202;SDS011;64985;46.364;17.008;2023-03-21T12:47:45;6.47;;;4.80;;
76202;SDS011;64985;46.364;17.008;2023-03-21T12:50:58;9.02;;;4.90;;
76202;SDS011;64985;46.364;17.008;2023-03-21T12:54:16;7.63;;;5.20;;
76202;SDS011;64985;46.364;17.008;2023-03-21T12:57:32;8.10;;;5.15;;
76202;SDS011;64985;46.364;17.008;2023-03-21T13:00:58;6.00;;;4.82;;
76202;SDS011;64985;46.364;17.008;2023-03-21T13:04:09;7.45;;;4.78;;
76202;SDS011;64985;46.364;17.008;2023-03-21T13:07:20;8.57;;;5.10;;
76202;SDS011;64985;46.364;17.008;2023-03-21T13:10:24;6.45;;;4.80;;
76202;SDS011;64985;46.364;17.008;2023-03-21T13:17:03;9.93;;;5.25;;
76202;SDS011;64985;46.364;17.008;2023-03-21T13:27:33;9.07;;;5.05;;
76202;SDS011;64985;46.364;17.008;2023-03-21T13:30:43;6.45;;;5.20;;
76202;SDS011;64985;46.364;17.008;2023-03-21T13:33:50;7.50;;;5.53;;
76202;SDS011;64985;46.364;17.008;2023-03-21T13:36:55;7.20;;;5.72;;
76202;SDS011;64985;46.364;17.008;2023-03-21T13:39:59;9.85;;;5.00;;
76202;SDS011;64985;46.364;17.008;2023-03-21T13:47:05;6.10;;;4.97;;
76202;SDS011;64985;46.364;17.008;2023-03-21T13:50:30;5.80;;;4.88;;
76202;SDS011;64985;46.364;17.008;2023-03-21T13:57:11;7.18;;;5.10;;
76202;SDS011;64985;46.364;17.008;2023-03-21T14:00:39;7.03;;;5.00;;
76202;SDS011;64985;46.364;17.008;2023-03-21T14:03:43;5.72;;;5.00;;
76202;SDS011;64985;46.364;17.008;2023-03-21T14:07:11;6.25;;;4.70;;
76202;SDS011;64985;46.364;17.008;2023-03-21T14:10:17;5.18;;;4.68;;
76202;SDS011;64985;46.364;17.008;2023-03-21T14:16:30;8.85;;;4.60;;
76202;SDS011;64985;46.364;17.008;2023-03-21T14:19:35;7.10;;;5.13;;
76202;SDS011;64985;46.364;17.008;2023-03-21T14:22:39;6.10;;;5.00;;
76202;SDS011;64985;46.364;17.008;2023-03-21T14:25:43;6.68;;;5.35;;
76202;SDS011;64985;46.364;17.008;2023-03-21T14:28:50;8.60;;;5.18;;
76202;SDS011;64985;46.364;17.008;2023-03-21T14:31:54;10.30;;;5.30;;
76202;SDS011;64985;46.364;17.008;2023-03-21T14:34:59;10.57;;;6.22;;
76202;SDS011;64985;46.364;17.008;2023-03-21T14:38:03;7.90;;;5.72;;
76202;SDS011;64985;46.364;17.008;2023-03-21T14:41:45;7.72;;;5.63;;
76202;SDS011;64985;46.364;17.008;2023-03-21T14:45:27;7.63;;;5.72;;
76202;SDS011;64985;46.364;17.008;2023-03-21T14:48:32;6.78;;;5.40;;
76202;SDS011;64985;46.364;17.008;2023-03-21T14:51:36;6.47;;;4.65;;
76202;SDS011;64985;46.364;17.008;2023-03-21T14:54:41;5.70;;;4.80;;
76202;SDS011;64985;46.364;17.008;2023-03-21T14:57:47;7.28;;;5.55;;
76202;SDS011;64985;46.364;17.008;2023-03-21T15:00:51;8.13;;;5.68;;
76202;SDS011;64985;46.364;17.008;2023-03-21T15:03:55;9.88;;;5.30;;
76202;SDS011;64985;46.364;17.008;2023-03-21T15:07:01;7.05;;;5.20;;
76202;SDS011;64985;46.364;17.008;2023-03-21T15:10:13;6.80;;;5.30;;
76202;SDS011;64985;46.364;17.008;2023-03-21T15:13:19;9.95;;;5.78;;
76202;SDS011;64985;46.364;17.008;2023-03-21T15:16:26;6.47;;;5.38;;
76202;SDS011;64985;46.364;17.008;2023-03-21T15:19:31;6.20;;;5.50;;
76202;SDS011;64985;46.364;17.008;2023-03-21T15:22:37;6.88;;;5.60;;
76202;SDS011;64985;46.364;17.008;2023-03-21T15:25:42;6.43;;;5.40;;
76202;SDS011;64985;46.364;17.008;2023-03-21T15:28:47;8.77;;;5.57;;
76202;SDS011;64985;46.364;17.008;2023-03-21T15:31:53;7.45;;;5.60;;
76202;SDS011;64985;46.364;17.008;2023-03-21T15:35:04;8.35;;;5.80;;
76202;SDS011;64985;46.364;17.008;2023-03-21T15:38:20;6.93;;;5.40;;
76202;SDS011;64985;46.364;17.008;2023-03-21T15:44:32;8.55;;;5.10;;
76202;SDS011;64985;46.364;17.008;2023-03-21T15:47:40;8.63;;;5.10;;
76202;SDS011;64985;46.364;17.008;2023-03-21T15:51:02;27.08;;;6.85;;
76202;SDS011;64985;46.364;17.008;2023-03-21T15:54:20;10.20;;;5.50;;
76202;SDS011;64985;46.364;17.008;2023-03-21T15:57:30;20.83;;;5.78;;
76202;SDS011;64985;46.364;17.008;2023-03-21T16:00:38;16.48;;;6.90;;
76202;SDS011;64985;46.364;17.008;2023-03-21T16:03:46;10.93;;;5.50;;
76202;SDS011;64985;46.364;17.008;2023-03-21T16:06:58;8.13;;;5.00;;
76202;SDS011;64985;46.364;17.008;2023-03-21T16:10:03;7.30;;;4.93;;
76202;SDS011;64985;46.364;17.008;2023-03-21T16:13:18;8.00;;;5.10;;
76202;SDS011;64985;46.364;17.008;2023-03-21T16:16:25;6.93;;;4.78;;
76202;SDS011;64985;46.364;17.008;2023-03-21T16:19:29;6.20;;;4.95;;
76202;SDS011;64985;46.364;17.008;2023-03-21T16:22:33;7.70;;;5.05;;
76202;SDS011;64985;46.364;17.008;2023-03-21T16:25:36;8.20;;;5.20;;
76202;SDS011;64985;46.364;17.008;2023-03-21T16:28:40;6.85;;;4.75;;
76202;SDS011;64985;46.364;17.008;2023-03-21T16:31:44;5.68;;;4.60;;
76202;SDS011;64985;46.364;17.008;2023-03-21T16:34:50;6.28;;;4.90;;
76202;SDS011;64985;46.364;17.008;2023-03-21T16:37:54;6.05;;;4.72;;
76202;SDS011;64985;46.364;17.008;2023-03-21T16:40:57;8.77;;;5.70;;
76202;SDS011;64985;46.364;17.008;2023-03-21T16:44:03;9.35;;;5.50;;
76202;SDS011;64985;46.364;17.008;2023-03-21T16:47:16;8.77;;;5.70;;
76202;SDS011;64985;46.364;17.008;2023-03-21T16:50:26;8.65;;;5.53;;
76202;SDS011;64985;46.364;17.008;2023-03-21T16:53:38;6.63;;;5.22;;
76202;SDS011;64985;46.364;17.008;2023-03-21T16:56:43;7.65;;;5.40;;
76202;SDS011;64985;46.364;17.008;2023-03-21T16:59:48;6.45;;;4.97;;
76202;SDS011;64985;46.364;17.008;2023-03-21T17:02:52;8.65;;;5.05;;
76202;SDS011;64985;46.364;17.008;2023-03-21T17:05:57;10.00;;;5.70;;
76202;SDS011;64985;46.364;17.008;2023-03-21T17:09:01;7.75;;;5.32;;
76202;SDS011;64985;46.364;17.008;2023-03-21T17:12:09;8.23;;;5.10;;
76202;SDS011;64985;46.364;17.008;2023-03-21T17:15:17;9.00;;;5.55;;
76202;SDS011;64985;46.364;17.008;2023-03-21T17:18:20;7.65;;;5.80;;
76202;SDS011;64985;46.364;17.008;2023-03-21T17:21:25;9.98;;;5.35;;
76202;SDS011;64985;46.364;17.008;2023-03-21T17:24:30;7.72;;;5.32;;
76202;SDS011;64985;46.364;17.008;2023-03-21T17:27:34;11.27;;;7.53;;
76202;SDS011;64985;46.364;17.008;2023-03-21T17:30:38;8.98;;;6.45;;
76202;SDS011;64985;46.364;17.008;2023-03-21T17:33:41;8.45;;;5.82;;
76202;SDS011;64985;46.364;17.008;2023-03-21T17:36:45;9.73;;;5.80;;
76202;SDS011;64985;46.364;17.008;2023-03-21T17:39:50;8.40;;;6.30;;
76202;SDS011;64985;46.364;17.008;2023-03-21T17:42:53;11.70;;;5.82;;
76202;SDS011;64985;46.364;17.008;2023-03-21T17:45:57;9.07;;;5.72;;
76202;SDS011;64985;46.364;17.008;2023-03-21T17:49:03;9.23;;;5.90;;
76202;SDS011;64985;46.364;17.008;2023-03-21T17:52:08;8.98;;;5.93;;
76202;SDS011;64985;46.364;17.008;2023-03-21T17:55:12;9.50;;;6.95;;
76202;SDS011;64985;46.364;17.008;2023-03-21T17:58:18;10.07;;;6.93;;
76202;SDS011;64985;46.364;17.008;2023-03-21T18:01:22;10.02;;;6.57;;
76202;SDS011;64985;46.364;17.008;2023-03-21T18:04:25;11.15;;;6.32;;
76202;SDS011;64985;46.364;17.008;2023-03-21T18:07:28;8.05;;;6.43;;
76202;SDS011;64985;46.364;17.008;2023-03-21T18:10:53;9.32;;;6.53;;
76202;SDS011;64985;46.364;17.008;2023-03-21T18:13:57;10.10;;;6.20;;
76202;SDS011;64985;46.364;17.008;2023-03-21T18:17:17;9.70;;;6.20;;
76202;SDS011;64985;46.364;17.008;2023-03-21T18:20:24;7.85;;;5.85;;
76202;SDS011;64985;46.364;17.008;2023-03-21T18:23:50;9.05;;;6.35;;
76202;SDS011;64985;46.364;17.008;2023-03-21T18:26:53;9.18;;;6.28;;
76202;SDS011;64985;46.364;17.008;2023-03-21T18:29:57;8.35;;;6.20;;
76202;SDS011;64985;46.364;17.008;2023-03-21T18:33:21;11.98;;;6.90;;
76202;SDS011;64985;46.364;17.008;2023-03-21T18:36:26;7.82;;;6.32;;
76202;SDS011;64985;46.364;17.008;2023-03-21T18:39:31;11.40;;;7.47;;
76202;SDS011;64985;46.364;17.008;2023-03-21T18:42:37;11.32;;;7.07;;
76202;SDS011;64985;46.364;17.008;2023-03-21T18:46:03;25.10;;;12.90;;
76202;SDS011;64985;46.364;17.008;2023-03-21T18:49:08;17.48;;;10.55;;
76202;SDS011;64985;46.364;17.008;2023-03-21T18:52:34;13.80;;;7.28;;
76202;SDS011;64985;46.364;17.008;2023-03-21T18:55:38;9.45;;;6.90;;
76202;SDS011;64985;46.364;17.008;2023-03-21T18:58:48;12.65;;;7.47;;
76202;SDS011;64985;46.364;17.008;2023-03-21T19:01:53;9.95;;;6.80;;
76202;SDS011;64985;46.364;17.008;2023-03-21T19:04:57;11.50;;;7.55;;
76202;SDS011;64985;46.364;17.008;2023-03-21T19:08:02;11.10;;;6.82;;
76202;SDS011;64985;46.364;17.008;2023-03-21T19:11:06;10.00;;;6.82;;
76202;SDS011;64985;46.364;17.008;2023-03-21T19:14:13;10.35;;;7.25;;
76202;SDS011;64985;46.364;17.008;2023-03-21T19:17:18;13.85;;;9.13;;
76202;SDS011;64985;46.364;17.008;2023-03-21T19:20:44;10.77;;;7.90;;
76202;SDS011;64985;46.364;17.008;2023-03-21T19:23:49;11.00;;;7.30;;
76202;SDS011;64985;46.364;17.008;2023-03-21T19:27:14;9.55;;;6.70;;
76202;SDS011;64985;46.364;17.008;2023-03-21T19:30:17;11.23;;;6.75;;
76202;SDS011;64985;46.364;17.008;2023-03-21T19:33:24;9.27;;;6.75;;
76202;SDS011;64985;46.364;17.008;2023-03-21T19:36:29;11.52;;;6.70;;
76202;SDS011;64985;46.364;17.008;2023-03-21T19:39:36;10.13;;;6.68;;
76202;SDS011;64985;46.364;17.008;2023-03-21T19:42:40;11.52;;;6.40;;
76202;SDS011;64985;46.364;17.008;2023-03-21T19:45:45;10.48;;;6.93;;
76202;SDS011;64985;46.364;17.008;2023-03-21T19:48:51;13.10;;;6.82;;
76202;SDS011;64985;46.364;17.008;2023-03-21T19:51:59;8.90;;;6.78;;
76202;SDS011;64985;46.364;17.008;2023-03-21T19:55:05;10.48;;;7.50;;
76202;SDS011;64985;46.364;17.008;2023-03-21T19:58:09;12.13;;;7.57;;
76202;SDS011;64985;46.364;17.008;2023-03-21T20:01:17;10.60;;;7.65;;